Time;durP1;ratioP1;P1;durP2;ratioP2;P2;SDS_P1;SDS_P2;PMS_P1;PMS_P2;Temp;Humidity;BMP_temperature;BMP_pressure;BME280_temperature;BME280_humidity;BME280_pressure;Samples;Min_cycle;Max_cycle;Signal;HPM_P1;HPM_P2
2022/05/31 00:01:55;;;;;;;4.82;3.90;;;10.40;99.90;;;;;;5111746;28;20047;-60
2022/05/31 00:04:21;;;;;;;5.25;3.50;;;10.40;99.90;;;;;;5094738;28;20069;-60
2022/05/31 00:06:47;;;;;;;6.20;3.85;;;10.40;99.90;;;;;;5115597;28;20047;-61
2022/05/31 00:09:13;;;;;;;6.88;4.20;;;10.40;99.90;;;;;;5115656;28;20052;-61
2022/05/31 00:11:41;;;;;;;6.20;4.32;;;10.40;99.90;;;;;;5115869;28;20129;-59
2022/05/31 00:14:08;;;;;;;5.38;4.45;;;10.40;99.90;;;;;;5097529;28;20044;-59
2022/05/31 00:16:34;;;;;;;7.57;4.68;;;10.30;99.90;;;;;;5097788;28;20510;-60
2022/05/31 00:19:00;;;;;;;6.53;4.78;;;10.30;99.90;;;;;;5115343;28;20126;-59
2022/05/31 00:21:41;;;;;;;5.10;4.00;;;10.20;99.90;;;;;;5115534;28;20049;-59
2022/05/31 00:24:09;;;;;;;6.95;4.15;;;10.20;99.90;;;;;;5115242;28;20075;-59
2022/05/31 00:26:38;;;;;;;5.63;4.15;;;10.20;99.90;;;;;;5097421;28;20070;-59
2022/05/31 00:29:04;;;;;;;6.93;5.05;;;10.20;99.90;;;;;;5096966;28;20520;-60
2022/05/31 00:31:30;;;;;;;6.80;4.70;;;10.20;99.90;;;;;;5115538;28;20054;-59
2022/05/31 00:33:56;;;;;;;7.15;4.95;;;10.20;99.90;;;;;;5097341;28;20065;-60
2022/05/31 00:36:22;;;;;;;7.07;5.00;;;10.20;99.90;;;;;;5115183;28;20044;-61
2022/05/31 00:38:48;;;;;;;8.57;5.28;;;10.20;99.90;;;;;;5115328;28;20122;-60
2022/05/31 00:41:23;;;;;;;6.93;4.88;;;10.20;99.90;;;;;;5079944;28;20533;-60
2022/05/31 00:43:53;;;;;;;6.70;5.25;;;10.30;99.90;;;;;;5097043;28;20047;-60
2022/05/31 00:46:23;;;;;;;9.98;5.22;;;10.30;99.90;;;;;;5096833;28;20094;-60
2022/05/31 00:49:01;;;;;;;7.57;5.00;;;10.30;99.90;;;;;;5079923;28;20043;-60
2022/05/31 00:51:40;;;;;;;6.78;5.63;;;10.30;99.90;;;;;;5096731;28;20090;-60
2022/05/31 00:54:11;;;;;;;7.50;4.90;;;10.30;99.90;;;;;;5114819;28;20035;-60
2022/05/31 00:56:36;;;;;;;8.75;5.10;;;10.20;99.90;;;;;;5096954;28;20130;-60
2022/05/31 00:59:12;;;;;;;8.80;5.40;;;10.30;99.90;;;;;;5096691;28;20055;-59
2022/05/31 01:01:41;;;;;;;6.72;5.40;;;10.20;99.90;;;;;;5115088;28;20130;-60
2022/05/31 01:04:07;;;;;;;7.60;5.28;;;10.20;99.90;;;;;;5096210;28;20580;-59
2022/05/31 01:06:35;;;;;;;7.82;5.32;;;10.30;99.90;;;;;;5114610;28;20043;-60
2022/05/31 01:09:01;;;;;;;6.03;4.50;;;10.20;99.90;;;;;;5096752;28;20048;-60
2022/05/31 01:11:30;;;;;;;6.95;4.72;;;10.30;99.90;;;;;;5114380;28;20092;-60
2022/05/31 01:13:57;;;;;;;6.20;4.93;;;10.30;99.90;;;;;;5114649;28;20106;-60
2022/05/31 01:16:23;;;;;;;5.78;5.00;;;10.30;99.90;;;;;;5095665;28;20052;-60
2022/05/31 01:18:49;;;;;;;6.43;4.68;;;10.30;99.90;;;;;;5114594;28;20051;-60
2022/05/31 01:21:15;;;;;;;7.18;4.72;;;10.30;99.90;;;;;;5114208;28;20048;-59
2022/05/31 01:24:15;;;;;;;9.25;5.32;;;10.30;99.90;;;;;;5079303;28;20048;-60
2022/05/31 01:26:47;;;;;;;7.43;4.45;;;10.30;99.90;;;;;;5113885;28;20196;-60
2022/05/31 01:29:26;;;;;;;7.70;5.05;;;10.40;99.90;;;;;;5114152;28;20043;-61
2022/05/31 01:32:08;;;;;;;5.95;4.63;;;10.40;99.90;;;;;;5096296;28;20051;-60
2022/05/31 01:34:55;;;;;;;7.60;5.43;;;10.40;99.90;;;;;;5096139;28;20078;-60
2022/05/31 01:37:25;;;;;;;5.50;4.45;;;10.40;99.90;;;;;;5114104;28;20366;-60
2022/05/31 01:39:58;;;;;;;9.27;4.78;;;10.40;99.90;;;;;;5114185;28;20051;-60
2022/05/31 01:42:34;;;;;;;9.65;4.90;;;10.40;99.90;;;;;;5113965;28;20083;-60
2022/05/31 01:45:29;;;;;;;8.38;4.93;;;10.40;99.90;;;;;;5113879;28;20043;-60
2022/05/31 01:47:58;;;;;;;7.53;5.20;;;10.40;99.90;;;;;;5093068;28;20055;-60
2022/05/31 01:50:24;;;;;;;6.32;4.82;;;10.40;99.90;;;;;;5095219;28;20509;-60
2022/05/31 01:52:51;;;;;;;7.05;5.00;;;10.40;99.90;;;;;;5113894;28;20074;-60
2022/05/31 01:55:17;;;;;;;10.07;5.38;;;10.40;99.90;;;;;;5113583;28;20044;-60
2022/05/31 01:57:48;;;;;;;7.45;4.60;;;10.40;99.90;;;;;;5113686;28;20105;-62
2022/05/31 02:00:16;;;;;;;5.53;4.65;;;10.30;99.90;;;;;;5113364;28;20062;-60
2022/05/31 02:02:47;;;;;;;5.97;4.35;;;10.30;99.90;;;;;;5113880;28;20421;-61
2022/05/31 02:05:13;;;;;;;8.77;5.07;;;10.30;99.90;;;;;;5113301;28;20035;-63
2022/05/31 02:07:39;;;;;;;7.07;5.05;;;10.30;99.90;;;;;;5113086;28;20567;-61
2022/05/31 02:10:05;;;;;;;6.53;5.25;;;10.30;99.90;;;;;;5113379;28;20130;-60
2022/05/31 02:12:31;;;;;;;7.03;4.70;;;10.30;99.90;;;;;;5094985;28;20075;-60
2022/05/31 02:14:57;;;;;;;9.07;5.30;;;10.30;99.90;;;;;;5112872;28;20031;-60
2022/05/31 02:17:24;;;;;;;8.23;5.22;;;10.30;99.90;;;;;;5112975;28;20178;-60
2022/05/31 02:19:50;;;;;;;8.02;5.30;;;10.40;99.90;;;;;;5113673;28;20173;-60
2022/05/31 02:22:22;;;;;;;8.65;5.22;;;10.30;99.90;;;;;;5112885;28;20436;-60
2022/05/31 02:24:48;;;;;;;7.07;5.45;;;10.30;99.90;;;;;;5113063;28;20174;-60
2022/05/31 02:27:14;;;;;;;7.95;5.38;;;10.30;99.90;;;;;;5094293;28;20130;-59
2022/05/31 02:29:41;;;;;;;7.47;5.32;;;10.30;99.90;;;;;;5113142;28;20058;-60
2022/05/31 02:32:09;;;;;;;7.78;5.18;;;10.30;99.90;;;;;;5113060;28;20047;-59
2022/05/31 02:34:38;;;;;;;7.30;4.97;;;10.30;99.90;;;;;;5112752;28;20044;-60
2022/05/31 02:37:04;;;;;;;8.60;5.30;;;10.30;99.90;;;;;;5113323;28;20082;-60
2022/05/31 02:39:30;;;;;;;6.93;5.30;;;10.30;99.90;;;;;;5112868;28;20121;-60
2022/05/31 02:41:56;;;;;;;9.55;5.03;;;10.20;99.90;;;;;;5113068;28;20048;-60
2022/05/31 02:44:23;;;;;;;8.02;5.43;;;10.30;99.90;;;;;;5094457;28;20507;-60
2022/05/31 02:46:49;;;;;;;7.13;4.80;;;10.20;99.90;;;;;;5112859;28;20408;-60
2022/05/31 02:49:15;;;;;;;9.35;4.80;;;10.20;99.90;;;;;;5112653;28;20055;-60
2022/05/31 02:51:43;;;;;;;5.57;4.55;;;10.20;99.90;;;;;;5112308;28;20071;-60
2022/05/31 02:54:12;;;;;;;5.88;4.43;;;10.20;99.90;;;;;;5094571;28;20118;-60
2022/05/31 02:56:38;;;;;;;7.35;4.85;;;10.20;99.90;;;;;;5112344;28;20048;-60
2022/05/31 02:59:05;;;;;;;7.35;4.95;;;10.10;99.90;;;;;;5112397;28;20268;-59
2022/05/31 03:01:37;;;;;;;9.35;4.72;;;10.10;99.90;;;;;;5111788;28;20506;-60
2022/05/31 03:04:03;;;;;;;6.85;4.88;;;10.10;99.90;;;;;;5112459;28;20058;-60
2022/05/31 03:06:29;;;;;;;6.10;4.97;;;10.10;99.90;;;;;;5111855;28;20154;-59
2022/05/31 03:08:55;;;;;;;6.57;4.95;;;10.10;99.90;;;;;;5094228;28;20422;-60
2022/05/31 03:11:25;;;;;;;7.38;5.00;;;10.10;99.90;;;;;;5111973;28;20074;-60
2022/05/31 03:13:54;;;;;;;7.35;4.53;;;10.10;99.90;;;;;;5111893;28;20488;-61
2022/05/31 03:16:22;;;;;;;6.70;4.60;;;10.10;99.90;;;;;;5112540;28;20048;-60
2022/05/31 03:19:03;;;;;;;6.85;4.80;;;10.10;99.90;;;;;;5112286;28;20127;-61
2022/05/31 03:21:36;;;;;;;8.20;5.07;;;10.10;99.90;;;;;;5112036;28;20130;-60
2022/05/31 03:24:10;;;;;;;6.18;4.03;;;10.10;99.90;;;;;;5094138;28;20047;-60
2022/05/31 03:26:37;;;;;;;7.30;4.43;;;10.10;99.90;;;;;;5111827;28;20431;-60
2022/05/31 03:29:04;;;;;;;6.68;4.63;;;10.10;99.90;;;;;;5112020;28;20135;-60
2022/05/31 03:31:31;;;;;;;4.97;4.30;;;10.10;99.90;;;;;;5060284;28;20090;-60
2022/05/31 03:33:58;;;;;;;6.80;4.45;;;10.10;99.90;;;;;;5093765;28;20048;-59
2022/05/31 03:36:24;;;;;;;5.75;4.30;;;10.10;99.90;;;;;;5111694;28;20446;-62
2022/05/31 03:38:49;;;;;;;6.50;4.63;;;10.10;99.90;;;;;;5111771;28;20044;-59
2022/05/31 03:41:15;;;;;;;7.35;5.30;;;10.10;99.90;;;;;;5112219;28;20043;-59
2022/05/31 03:43:42;;;;;;;6.57;5.07;;;10.10;99.90;;;;;;5111335;28;20043;-59
2022/05/31 03:46:13;;;;;;;5.72;4.50;;;10.10;99.90;;;;;;5077298;28;20338;-59
2022/05/31 03:48:39;;;;;;;6.88;4.95;;;10.10;99.90;;;;;;5111095;28;20472;-59
2022/05/31 03:51:11;;;;;;;6.13;5.07;;;10.10;99.90;;;;;;5111677;28;20043;-60
2022/05/31 03:53:37;;;;;;;8.68;5.55;;;10.10;99.90;;;;;;5111455;28;20085;-60
2022/05/31 03:56:12;;;;;;;7.97;5.35;;;10.10;99.90;;;;;;5111737;28;20400;-60
2022/05/31 03:58:39;;;;;;;7.63;5.18;;;10.10;99.90;;;;;;5111442;28;20050;-60
2022/05/31 04:01:05;;;;;;;8.52;5.50;;;10.10;99.90;;;;;;5111608;28;20058;-60
2022/05/31 04:03:31;;;;;;;8.63;5.55;;;10.00;99.90;;;;;;5111102;28;20043;-60
2022/05/31 04:05:57;;;;;;;7.72;4.78;;;10.00;99.90;;;;;;5111859;28;20370;-61
2022/05/31 04:08:24;;;;;;;7.50;5.22;;;10.10;99.90;;;;;;5093268;28;20052;-60
2022/05/31 04:10:50;;;;;;;9.38;5.60;;;10.10;99.90;;;;;;5076450;28;20047;-60
2022/05/31 04:13:17;;;;;;;8.93;5.22;;;10.10;99.90;;;;;;5093718;28;20135;-59
2022/05/31 04:15:43;;;;;;;7.90;5.30;;;10.10;99.90;;;;;;5111303;28;20040;-59
2022/05/31 04:18:09;;;;;;;10.18;5.13;;;10.10;99.90;;;;;;5111542;28;20051;-58
2022/05/31 04:20:41;;;;;;;7.90;4.95;;;10.10;99.90;;;;;;5111433;28;20050;-59
2022/05/31 04:26:11;;;;;;;8.00;5.28;;;10.10;99.90;;;;;;5048129;28;20383;-59
2022/05/31 04:28:36;;;;;;;7.72;4.95;;;10.10;99.90;;;;;;5031233;28;20052;-59
2022/05/31 04:31:02;;;;;;;9.82;5.25;;;10.10;99.90;;;;;;5077155;28;20055;-60
2022/05/31 04:33:28;;;;;;;9.15;5.13;;;10.10;99.90;;;;;;5111336;28;20400;-60
2022/05/31 04:36:02;;;;;;;7.35;5.10;;;10.00;99.90;;;;;;5111006;28;20054;-59
2022/05/31 04:38:28;;;;;;;6.50;5.38;;;10.20;99.90;;;;;;5111407;28;20050;-60
2022/05/31 04:40:54;;;;;;;6.57;5.57;;;10.10;99.90;;;;;;5110909;28;20169;-59
2022/05/31 04:43:19;;;;;;;9.55;5.40;;;10.10;99.90;;;;;;5111631;28;20083;-59
2022/05/31 04:45:45;;;;;;;7.03;5.60;;;10.10;99.90;;;;;;5092906;28;20082;-59
2022/05/31 04:48:11;;;;;;;7.32;5.20;;;10.10;99.90;;;;;;5093043;28;20092;-60
2022/05/31 04:50:37;;;;;;;10.05;5.65;;;10.10;99.90;;;;;;5112370;28;20101;-60
2022/05/31 04:53:02;;;;;;;7.63;4.85;;;10.20;99.90;;;;;;5096920;28;20047;-60
2022/05/31 04:55:31;;;;;;;8.73;5.20;;;10.20;99.90;;;;;;5115078;28;20376;-60
2022/05/31 04:57:57;;;;;;;10.02;5.40;;;10.20;99.90;;;;;;5114665;28;20039;-60
2022/05/31 05:00:23;;;;;;;6.75;4.93;;;10.20;99.90;;;;;;5115043;28;20042;-60
2022/05/31 05:02:48;;;;;;;7.55;4.90;;;10.20;99.90;;;;;;5114478;28;20438;-60
2022/05/31 05:05:16;;;;;;;7.72;4.97;;;10.20;99.90;;;;;;5114881;28;20130;-59
2022/05/31 05:07:42;;;;;;;7.18;5.20;;;10.20;99.90;;;;;;5096203;28;20051;-59
2022/05/31 05:10:08;;;;;;;6.30;5.15;;;10.20;99.90;;;;;;5096521;28;20062;-59
2022/05/31 05:12:34;;;;;;;7.55;5.55;;;10.20;99.90;;;;;;5096303;28;20090;-60
2022/05/31 05:15:00;;;;;;;6.97;6.13;;;10.20;99.90;;;;;;5114190;28;20103;-60
2022/05/31 05:17:26;;;;;;;8.07;5.40;;;10.30;99.90;;;;;;5114431;28;20043;-60
2022/05/31 05:19:52;;;;;;;7.88;5.20;;;10.30;99.90;;;;;;5079136;28;20043;-60
2022/05/31 05:22:18;;;;;;;7.85;5.78;;;10.30;99.90;;;;;;5096144;28;20035;-60
2022/05/31 05:24:44;;;;;;;9.23;6.03;;;10.30;99.90;;;;;;5114074;28;20036;-59
2022/05/31 05:27:09;;;;;;;6.97;5.50;;;10.30;99.90;;;;;;5095854;28;20093;-60
2022/05/31 05:32:20;;;;;;;7.00;5.72;;;10.40;99.90;;;;;;5114391;28;20048;-61
2022/05/31 05:34:54;;;;;;;7.97;7.03;;;10.30;99.90;;;;;;5113869;28;20369;-60
2022/05/31 05:37:21;;;;;;;6.20;5.43;;;10.40;99.90;;;;;;5114230;28;20054;-59
2022/05/31 05:39:46;;;;;;;6.65;5.78;;;10.50;99.90;;;;;;5113853;28;20054;-61
2022/05/31 05:42:14;;;;;;;8.20;5.75;;;10.60;99.90;;;;;;5095765;28;20043;-60
2022/05/31 05:44:40;;;;;;;10.85;6.13;;;10.60;99.90;;;;;;5113836;28;20054;-61
2022/05/31 05:47:14;;;;;;;10.88;6.03;;;10.60;99.90;;;;;;5113681;28;20463;-59
2022/05/31 05:49:40;;;;;;;8.13;6.20;;;10.60;99.90;;;;;;5095825;28;20058;-60
2022/05/31 05:52:09;;;;;;;8.95;6.35;;;10.70;99.90;;;;;;5113486;28;20046;-59
2022/05/31 05:54:35;;;;;;;7.80;5.55;;;10.70;99.90;;;;;;5113807;28;20066;-59
2022/05/31 05:57:01;;;;;;;6.88;5.93;;;10.70;99.90;;;;;;5113649;28;20481;-59
2022/05/31 05:59:27;;;;;;;9.90;5.97;;;10.70;99.90;;;;;;5095526;28;20044;-59
2022/05/31 06:02:00;;;;;;;11.05;6.60;;;10.80;99.90;;;;;;5112151;28;20415;-60
2022/05/31 06:04:31;;;;;;;7.32;5.60;;;10.80;99.90;;;;;;5095237;28;20123;-60
2022/05/31 06:07:20;;;;;;;7.10;5.82;;;10.80;99.90;;;;;;5113211;28;20407;-59
2022/05/31 06:09:58;;;;;;;8.63;6.53;;;10.80;99.90;;;;;;5113240;28;20044;-60
2022/05/31 06:12:29;;;;;;;7.88;6.10;;;10.90;99.90;;;;;;5095170;28;20058;-60
2022/05/31 06:14:58;;;;;;;7.65;6.35;;;10.90;99.90;;;;;;5094743;28;20515;-60
2022/05/31 06:17:31;;;;;;;8.98;6.15;;;11.00;99.90;;;;;;5095267;28;20074;-60
2022/05/31 06:20:00;;;;;;;8.73;6.72;;;11.00;99.90;;;;;;5113016;28;20126;-60
2022/05/31 06:22:26;;;;;;;7.90;6.47;;;11.10;99.90;;;;;;5113365;28;20185;-60
2022/05/31 06:24:51;;;;;;;9.93;6.80;;;11.10;99.90;;;;;;5094656;28;20131;-60
2022/05/31 06:27:17;;;;;;;10.38;6.60;;;11.10;99.90;;;;;;5112958;28;20454;-59
2022/05/31 06:29:43;;;;;;;10.10;6.53;;;11.10;99.90;;;;;;5094650;28;20043;-59
2022/05/31 06:32:08;;;;;;;9.10;5.85;;;11.20;99.90;;;;;;5112480;28;20040;-59
2022/05/31 06:34:37;;;;;;;8.25;6.18;;;11.30;99.90;;;;;;5112930;28;20562;-58
2022/05/31 06:37:08;;;;;;;9.50;5.93;;;11.30;99.90;;;;;;5112666;28;20138;-59
2022/05/31 06:39:36;;;;;;;9.27;6.15;;;11.40;99.90;;;;;;5077750;28;20484;-60
2022/05/31 06:42:03;;;;;;;7.88;6.30;;;11.40;99.90;;;;;;5094473;28;20047;-59
2022/05/31 06:44:35;;;;;;;9.07;5.90;;;11.50;99.90;;;;;;5094659;28;20047;-59
2022/05/31 06:47:00;;;;;;;7.45;5.97;;;11.50;99.90;;;;;;5094111;28;20055;-61
2022/05/31 06:49:27;;;;;;;9.50;5.95;;;11.70;99.90;;;;;;5112627;28;20117;-60
2022/05/31 06:57:21;;;;;;;8.88;6.30;;;11.90;99.90;;;;;;5112702;28;20047;-61
2022/05/31 06:59:47;;;;;;;9.10;5.70;;;12.00;99.90;;;;;;5112376;28;20169;-59
2022/05/31 07:02:13;;;;;;;8.75;5.53;;;12.10;99.90;;;;;;5112185;28;20138;-60
2022/05/31 07:04:38;;;;;;;8.02;5.93;;;12.20;99.90;;;;;;5094289;28;20048;-59
2022/05/31 07:07:05;;;;;;;8.02;5.97;;;12.40;99.90;;;;;;5093411;28;20064;-60
2022/05/31 07:09:32;;;;;;;8.48;6.03;;;12.50;99.90;;;;;;5112233;28;20178;-59
2022/05/31 07:11:59;;;;;;;8.48;5.93;;;12.50;99.90;;;;;;5076884;28;20067;-60
2022/05/31 07:14:25;;;;;;;8.85;5.57;;;12.70;99.90;;;;;;5111797;28;20044;-60
2022/05/31 07:16:52;;;;;;;10.13;6.50;;;12.80;99.90;;;;;;5094252;28;20097;-60
2022/05/31 07:19:17;;;;;;;6.78;5.57;;;12.80;99.90;;;;;;5111938;28;20466;-60
2022/05/31 07:21:44;;;;;;;7.50;5.75;;;13.00;99.90;;;;;;5093925;28;20054;-59
2022/05/31 07:24:10;;;;;;;7.82;5.60;;;13.10;99.90;;;;;;5093673;28;20050;-60
2022/05/31 07:26:38;;;;;;;7.47;5.78;;;13.20;99.90;;;;;;5112096;28;20043;-60
2022/05/31 07:29:04;;;;;;;7.55;5.38;;;13.40;99.90;;;;;;5093627;28;20043;-60
2022/05/31 07:31:29;;;;;;;8.20;5.15;;;13.60;99.90;;;;;;5112005;28;20039;-59
2022/05/31 07:33:56;;;;;;;8.38;4.78;;;13.70;99.90;;;;;;5111707;28;20055;-59
2022/05/31 07:36:22;;;;;;;10.80;4.70;;;13.90;99.90;;;;;;5060546;28;20065;-60
2022/05/31 07:38:47;;;;;;;7.65;5.00;;;14.20;99.90;;;;;;5111926;28;20123;-60
2022/05/31 07:41:13;;;;;;;8.35;5.10;;;14.30;99.90;;;;;;5093486;28;20044;-60
2022/05/31 07:43:39;;;;;;;8.63;5.00;;;14.60;99.90;;;;;;5111864;28;20364;-60
2022/05/31 07:46:07;;;;;;;6.75;4.40;;;15.00;99.90;;;;;;5093240;28;20445;-60
2022/05/31 07:48:38;;;;;;;7.03;4.30;;;15.20;99.90;;;;;;5112005;28;20051;-60
2022/05/31 07:51:05;;;;;;;5.40;4.05;;;15.40;99.90;;;;;;5093314;28;20501;-59
2022/05/31 07:53:31;;;;;;;6.45;3.72;;;16.00;99.90;;;;;;5093626;28;20044;-60
2022/05/31 07:55:59;;;;;;;7.18;4.15;;;;;;;;;;5111777;28;20123;-60
2022/05/31 07:58:31;;;;;;;8.35;3.72;;;17.00;99.90;;;;;;5093873;28;20055;-60
2022/05/31 08:00:57;;;;;;;4.85;3.30;;;18.90;99.90;;;;;;5093815;28;20113;-60
2022/05/31 08:03:22;;;;;;;5.72;3.88;;;19.50;99.90;;;;;;5111523;28;20047;-61
2022/05/31 08:05:48;;;;;;;5.18;3.60;;;20.10;99.90;;;;;;5111557;28;20047;-61
2022/05/31 08:08:14;;;;;;;4.72;3.45;;;20.70;99.90;;;;;;5110974;28;20067;-60
2022/05/31 08:10:40;;;;;;;8.40;3.53;;;21.00;99.90;;;;;;5111524;28;20408;-61
2022/05/31 08:13:05;;;;;;;5.78;3.50;;;21.10;98.00;;;;;;5111237;28;20044;-61
2022/05/31 08:15:31;;;;;;;5.85;3.00;;;21.10;99.90;;;;;;5093492;28;20036;-61
2022/05/31 08:17:57;;;;;;;5.28;3.33;;;21.20;99.90;;;;;;5111525;28;20452;-61
2022/05/31 08:20:23;;;;;;;6.20;3.25;;;21.30;99.90;;;;;;5111175;28;20123;-60
2022/05/31 08:22:48;;;;;;;6.20;3.47;;;21.70;97.90;;;;;;5076619;28;20346;-61
2022/05/31 08:25:15;;;;;;;6.30;3.33;;;22.00;96.80;;;;;;5112109;28;20082;-62
2022/05/31 08:27:41;;;;;;;7.20;2.85;;;22.50;95.80;;;;;;5115615;28;20081;-60
2022/05/31 08:30:07;;;;;;;4.78;3.08;;;22.70;96.30;;;;;;5115237;28;20040;-60
2022/05/31 08:32:34;;;;;;;5.55;3.15;;;23.20;97.70;;;;;;5115278;28;20050;-60
2022/05/31 08:35:00;;;;;;;5.00;3.28;;;23.40;94.00;;;;;;5115575;28;20131;-60
2022/05/31 08:37:26;;;;;;;6.00;3.47;;;23.40;94.20;;;;;;5096915;28;20075;-60
2022/05/31 08:39:52;;;;;;;5.05;2.88;;;23.50;94.60;;;;;;5115384;28;20096;-60
2022/05/31 08:42:28;;;;;;;5.75;3.25;;;23.70;94.00;;;;;;5115377;28;20043;-60
2022/05/31 08:45:11;;;;;;;7.30;3.47;;;24.30;93.80;;;;;;5115323;28;20092;-61
2022/05/31 08:47:44;;;;;;;5.05;3.50;;;24.50;93.30;;;;;;5080378;28;20056;-60
2022/05/31 08:53:14;;;;;;;7.30;3.38;;;22.90;90.90;;;;;;5115176;28;20066;-60
2022/05/31 08:59:05;;;;;;;8.10;3.38;;;22.20;91.60;;;;;;5114828;28;20141;-61
2022/05/31 09:01:55;;;;;;;4.65;3.10;;;22.00;92.70;;;;;;5114594;28;20051;-61
2022/05/31 09:04:33;;;;;;;6.88;3.53;;;21.90;93.20;;;;;;5114033;28;20386;-61
2022/05/31 09:07:08;;;;;;;6.00;2.65;;;21.40;92.90;;;;;;5114815;28;20043;-61
2022/05/31 09:10:00;;;;;;;5.45;2.20;;;21.10;92.50;;;;;;5096309;28;20052;-61
2022/05/31 09:12:36;;;;;;;5.35;2.63;;;21.20;91.70;;;;;;5114409;28;20039;-61
2022/05/31 09:15:16;;;;;;;8.48;2.80;;;21.10;91.70;;;;;;5114568;28;20079;-61
2022/05/31 09:17:56;;;;;;;4.03;2.40;;;21.10;92.10;;;;;;5096472;28;20044;-60
2022/05/31 09:20:29;;;;;;;4.78;2.60;;;20.80;91.90;;;;;;5114255;28;20044;-60
2022/05/31 09:22:55;;;;;;;4.80;2.85;;;20.40;91.40;;;;;;5079378;28;20078;-60
2022/05/31 09:25:20;;;;;;;4.00;2.47;;;20.50;92.00;;;;;;5114076;28;20224;-59
2022/05/31 09:27:49;;;;;;;5.72;2.67;;;20.30;92.50;;;;;;5096357;28;20051;-60
2022/05/31 09:30:42;;;;;;;5.63;2.38;;;20.80;92.30;;;;;;5078866;28;20062;-60
2022/05/31 09:33:28;;;;;;;9.65;2.97;;;21.10;90.40;;;;;;5079521;28;20138;-61
2022/05/31 09:36:18;;;;;;;5.07;2.45;;;21.30;90.20;;;;;;5114024;28;20047;-61
2022/05/31 09:39:09;;;;;;;4.00;2.35;;;21.40;90.70;;;;;;5114204;28;20051;-60
2022/05/31 09:41:44;;;;;;;5.25;2.50;;;21.50;91.10;;;;;;5101881;28;20051;-61
2022/05/31 09:44:19;;;;;;;4.53;2.30;;;22.00;89.40;;;;;;5095896;28;20044;-61
2022/05/31 09:46:52;;;;;;;3.47;2.08;;;22.30;90.60;;;;;;5114096;28;20078;-60
2022/05/31 09:49:18;;;;;;;4.85;2.50;;;22.50;90.30;;;;;;5095432;28;20538;-60
2022/05/31 09:51:44;;;;;;;3.80;2.30;;;22.20;86.70;;;;;;5113960;28;20052;-61
2022/05/31 09:57:07;;;;;;;6.30;2.70;;;21.60;85.30;;;;;;5114015;28;20087;-61
2022/05/31 09:59:40;;;;;;;8.00;2.78;;;21.50;86.60;;;;;;5113497;28;20043;-61
2022/05/31 10:02:20;;;;;;;5.60;2.88;;;21.50;88.10;;;;;;5095513;28;20047;-61
2022/05/31 10:04:48;;;;;;;4.47;2.88;;;21.30;87.80;;;;;;5113643;28;20062;-61
2022/05/31 10:07:34;;;;;;;4.47;2.53;;;21.40;87.80;;;;;;5113385;28;20056;-61
2022/05/31 10:10:10;;;;;;;7.63;2.50;;;21.60;85.40;;;;;;5113668;28;20048;-60
2022/05/31 10:12:39;;;;;;;6.05;2.90;;;21.60;86.20;;;;;;5113120;28;20051;-61
2022/05/31 10:15:43;;;;;;;8.40;3.00;;;21.30;85.40;;;;;;5113471;28;20046;-60
2022/05/31 10:18:12;;;;;;;4.72;3.10;;;21.00;86.50;;;;;;5113320;28;20412;-61
2022/05/31 10:21:11;;;;;;;5.90;2.97;;;20.70;84.80;;;;;;5112890;28;20054;-61
2022/05/31 10:23:45;;;;;;;5.57;3.03;;;20.30;85.80;;;;;;5094230;28;20132;-61
2022/05/31 10:26:31;;;;;;;6.07;3.20;;;20.00;87.40;;;;;;5112784;28;20484;-60
2022/05/31 10:29:07;;;;;;;4.57;2.80;;;20.10;86.00;;;;;;5113224;28;20096;-61
2022/05/31 10:31:35;;;;;;;5.72;2.80;;;19.90;85.60;;;;;;5112978;28;20048;-60
2022/05/31 10:34:05;;;;;;;9.13;2.80;;;19.60;86.40;;;;;;5112916;28;20104;-60
2022/05/31 10:36:49;;;;;;;5.43;2.80;;;19.70;86.00;;;;;;5112959;28;20084;-60
2022/05/31 10:39:21;;;;;;;6.70;2.97;;;19.70;86.20;;;;;;5113212;28;20053;-60
2022/05/31 10:41:50;;;;;;;5.70;2.70;;;19.60;86.60;;;;;;5077765;28;20052;-60
2022/05/31 10:44:32;;;;;;;4.72;2.60;;;19.60;85.20;;;;;;5112670;28;20074;-59
2022/05/31 10:47:09;;;;;;;5.93;2.83;;;19.40;86.90;;;;;;5113007;28;20043;-59
2022/05/31 10:49:36;;;;;;;3.97;2.13;;;19.10;85.30;;;;;;5111725;28;20043;-61
2022/05/31 10:52:12;;;;;;;4.68;2.65;;;18.90;85.50;;;;;;5112581;28;20641;-60
2022/05/31 10:55:06;;;;;;;4.50;2.35;;;18.80;86.50;;;;;;5094074;28;20047;-61
2022/05/31 10:57:54;;;;;;;4.80;2.38;;;18.60;87.40;;;;;;5112365;28;20078;-60
2022/05/31 11:00:34;;;;;;;4.90;2.75;;;18.60;87.60;;;;;;5094418;28;20043;-61
2022/05/31 11:03:00;;;;;;;4.70;2.45;;;18.50;87.30;;;;;;5112856;28;20413;-60
2022/05/31 11:05:52;;;;;;;4.20;2.38;;;18.70;87.20;;;;;;5112118;28;20036;-63
2022/05/31 11:11:58;;;;;;;3.58;2.50;;;18.70;86.40;;;;;;5112059;28;20051;-60
2022/05/31 11:14:44;;;;;;;4.45;2.85;;;18.70;86.20;;;;;;5112370;28;20136;-59
2022/05/31 11:17:57;;;;;;;4.65;2.35;;;18.90;85.70;;;;;;5112274;28;20048;-60
2022/05/31 11:20:28;;;;;;;6.32;2.88;;;18.90;84.80;;;;;;5094345;28;20130;-60
2022/05/31 11:22:54;;;;;;;4.93;2.30;;;18.90;85.20;;;;;;5111928;28;20544;-60
2022/05/31 11:25:38;;;;;;;5.22;2.30;;;19.10;84.80;;;;;;5111806;28;20127;-59
2022/05/31 11:28:18;;;;;;;4.40;2.60;;;19.30;84.20;;;;;;5094098;28;20048;-60
2022/05/31 11:31:23;;;;;;;5.22;2.22;;;19.10;84.40;;;;;;5111688;28;20051;-60
2022/05/31 11:34:11;;;;;;;6.68;2.60;;;19.20;83.90;;;;;;5108953;28;20106;-61
2022/05/31 11:37:06;;;;;;;4.00;2.40;;;19.40;85.00;;;;;;5093616;28;20136;-60
2022/05/31 11:39:50;;;;;;;5.32;2.65;;;19.30;83.50;;;;;;5093604;28;20118;-62
2022/05/31 11:42:22;;;;;;;4.82;2.22;;;19.30;84.40;;;;;;5111979;28;20070;-61
2022/05/31 11:44:56;;;;;;;5.35;2.53;;;19.50;84.60;;;;;;5111971;28;20108;-60
2022/05/31 11:47:24;;;;;;;6.05;2.72;;;19.60;84.90;;;;;;5093850;28;20044;-61
2022/05/31 11:49:56;;;;;;;3.63;2.50;;;19.80;82.80;;;;;;5111629;28;20048;-60
2022/05/31 11:53:03;;;;;;;5.55;2.50;;;19.90;84.20;;;;;;5093766;28;20044;-61
2022/05/31 11:55:28;;;;;;;6.43;2.65;;;20.00;83.60;;;;;;5111794;28;20077;-60
2022/05/31 11:58:15;;;;;;;4.55;2.80;;;20.10;81.40;;;;;;5111475;28;20051;-61
2022/05/31 12:01:01;;;;;;;4.50;2.47;;;20.20;81.90;;;;;;5115225;28;20135;-60
2022/05/31 12:03:35;;;;;;;5.53;2.78;;;20.10;79.40;;;;;;5098041;28;20044;-60
2022/05/31 12:06:19;;;;;;;6.15;2.50;;;20.00;80.20;;;;;;5097646;28;20169;-59
2022/05/31 12:08:53;;;;;;;;;;;20.00;81.50;;;;;;5115667;28;20063;-60
2022/05/31 12:11:46;;;;;;;3.47;2.22;;;20.10;82.00;;;;;;5116092;28;19919;-59
2022/05/31 12:14:14;;;;;;;5.60;2.70;;;20.30;80.70;;;;;;5115611;28;20519;-58
2022/05/31 12:16:41;;;;;;;5.13;2.53;;;20.50;81.30;;;;;;5115358;28;20055;-60
2022/05/31 12:19:24;;;;;;;4.72;2.50;;;20.50;79.90;;;;;;5115672;28;20189;-60
2022/05/31 12:22:08;;;;;;;5.03;2.83;;;20.60;79.80;;;;;;5115481;28;20048;-60
2022/05/31 12:24:58;;;;;;;8.32;2.92;;;20.60;81.40;;;;;;5115476;28;20056;-60
2022/05/31 12:27:48;;;;;;;3.92;2.35;;;20.60;82.20;;;;;;5114669;28;20055;-59
2022/05/31 12:30:28;;;;;;;5.60;2.58;;;20.60;80.80;;;;;;5100529;28;20493;-59
2022/05/31 12:32:54;;;;;;;4.65;2.85;;;20.50;80.30;;;;;;5115326;28;20442;-60
2022/05/31 12:35:32;;;;;;;5.32;2.55;;;20.40;81.60;;;;;;5114913;28;20148;-61
2022/05/31 12:38:00;;;;;;;3.88;2.63;;;20.40;81.40;;;;;;5115180;28;20039;-60
2022/05/31 12:40:26;;;;;;;4.43;3.08;;;20.30;81.80;;;;;;5115229;28;20044;-60
2022/05/31 12:42:52;;;;;;;5.57;2.92;;;20.30;81.60;;;;;;5114954;28;20189;-60
2022/05/31 12:45:36;;;;;;;8.65;3.78;;;20.10;82.50;;;;;;5115059;28;20048;-61
2022/05/31 12:48:11;;;;;;;;;;;19.80;83.80;;;;;;5115312;28;20187;-61
2022/05/31 12:50:55;;;;;;;4.70;3.13;;;19.70;84.10;;;;;;5115186;28;19919;-61
2022/05/31 12:53:23;;;;;;;5.93;3.22;;;19.60;84.00;;;;;;5097002;28;20055;-60
2022/05/31 12:55:59;;;;;;;4.22;2.80;;;19.50;83.50;;;;;;5096510;28;20082;-60
2022/05/31 12:58:30;;;;;;;4.85;3.10;;;19.20;84.10;;;;;;5079897;28;20394;-61
2022/05/31 13:01:06;;;;;;;6.15;2.92;;;19.20;83.80;;;;;;5096287;28;20058;-60
2022/05/31 13:03:35;;;;;;;4.65;2.47;;;19.10;83.30;;;;;;5114955;28;20048;-61
2022/05/31 13:06:07;;;;;;;5.57;2.50;;;19.10;83.70;;;;;;5114210;28;20066;-60
2022/05/31 13:09:00;;;;;;;8.35;2.65;;;19.00;84.40;;;;;;5114659;28;20126;-60
2022/05/31 13:19:49;;;;;;;6.75;2.78;;;18.50;82.20;;;;;;5114114;28;20039;-59
2022/05/31 13:22:17;;;;;;;6.25;3.10;;;18.40;82.80;;;;;;5114345;28;20059;-61
2022/05/31 13:25:01;;;;;;;4.35;2.63;;;18.50;83.90;;;;;;5096250;28;20052;-60
2022/05/31 13:27:30;;;;;;;5.45;2.78;;;18.40;85.10;;;;;;5114449;28;20054;-61
2022/05/31 13:30:01;;;;;;;10.80;2.75;;;18.50;85.20;;;;;;5114055;28;20039;-61
2022/05/31 13:32:35;;;;;;;8.32;3.05;;;18.50;85.60;;;;;;5114350;28;20058;-61
2022/05/31 13:35:09;;;;;;;5.90;2.78;;;18.50;85.90;;;;;;5113820;28;20400;-60
2022/05/31 13:38:06;;;;;;;6.03;2.70;;;18.40;87.10;;;;;;5096167;28;20069;-60
2022/05/31 13:40:41;;;;;;;5.65;2.80;;;18.40;86.30;;;;;;5096294;28;20056;-61
2022/05/31 13:43:13;;;;;;;;;;;18.40;86.10;;;;;;5114604;28;20054;-60